sensor_id;sensor_type;location;lat;lon;timestamp;pressure;altitude;pressure_sealevel;temperature;humidity
36692;BME280;22678;52.052;4.242;2023-04-06T00:00:08;101820.13;;;8.86;52.04
36692;BME280;22678;52.052;4.242;2023-04-06T00:02:34;101806.00;;;8.78;52.11
36692;BME280;22678;52.052;4.242;2023-04-06T00:04:59;101807.75;;;8.76;51.93
36692;BME280;22678;52.052;4.242;2023-04-06T00:07:25;101816.47;;;8.75;52.02
36692;BME280;22678;52.052;4.242;2023-04-06T00:09:51;101814.72;;;8.77;51.94
36692;BME280;22678;52.052;4.242;2023-04-06T00:12:16;101812.03;;;8.72;52.05
36692;BME280;22678;52.052;4.242;2023-04-06T00:14:42;101810.28;;;8.73;51.81
36692;BME280;22678;52.052;4.242;2023-04-06T00:17:07;101814.66;;;8.71;51.37
36692;BME280;22678;52.052;4.242;2023-04-06T00:19:33;101798.75;;;8.58;51.61
36692;BME280;22678;52.052;4.242;2023-04-06T00:21:58;101801.38;;;8.60;52.01
36692;BME280;22678;52.052;4.242;2023-04-06T00:24:23;101806.59;;;8.57;51.75
36692;BME280;22678;52.052;4.242;2023-04-06T00:26:49;101788.03;;;8.46;51.77
36692;BME280;22678;52.052;4.242;2023-04-06T00:29:14;101782.84;;;8.49;51.74
36692;BME280;22678;52.052;4.242;2023-04-06T00:31:40;101795.09;;;8.50;51.75
36692;BME280;22678;52.052;4.242;2023-04-06T00:34:05;101773.06;;;8.40;51.64
36692;BME280;22678;52.052;4.242;2023-04-06T00:36:31;101779.13;;;8.35;51.36
36692;BME280;22678;52.052;4.242;2023-04-06T00:38:56;101774.75;;;8.35;51.19
36692;BME280;22678;52.052;4.242;2023-04-06T00:41:22;101764.94;;;8.23;51.48
36692;BME280;22678;52.052;4.242;2023-04-06T00:43:47;101767.59;;;8.25;51.57
36692;BME280;22678;52.052;4.242;2023-04-06T00:46:12;101755.25;;;8.18;51.50
36692;BME280;22678;52.052;4.242;2023-04-06T00:48:38;101763.94;;;8.17;51.51
36692;BME280;22678;52.052;4.242;2023-04-06T00:51:04;101749.88;;;8.10;51.68
36692;BME280;22678;52.052;4.242;2023-04-06T00:53:29;101765.69;;;8.15;51.71
36692;BME280;22678;52.052;4.242;2023-04-06T00:55:55;101748.94;;;8.06;51.68
36692;BME280;22678;52.052;4.242;2023-04-06T00:58:20;101737.50;;;8.01;51.38
36692;BME280;22678;52.052;4.242;2023-04-06T01:00:47;101743.66;;;8.03;51.21
36692;BME280;22678;52.052;4.242;2023-04-06T01:03:12;101752.47;;;8.07;51.32
36692;BME280;22678;52.052;4.242;2023-04-06T01:05:38;101738.34;;;7.99;51.11
36692;BME280;22678;52.052;4.242;2023-04-06T01:08:06;101729.53;;;7.94;50.85
36692;BME280;22678;52.052;4.242;2023-04-06T01:10:32;101729.59;;;7.97;51.02
36692;BME280;22678;52.052;4.242;2023-04-06T01:12:57;101721.66;;;7.92;50.99
36692;BME280;22678;52.052;4.242;2023-04-06T01:15:23;101719.84;;;7.89;50.89
36692;BME280;22678;52.052;4.242;2023-04-06T01:17:49;101724.31;;;7.94;51.03
36692;BME280;22678;52.052;4.242;2023-04-06T01:20:15;101714.56;;;7.86;50.89
36692;BME280;22678;52.052;4.242;2023-04-06T01:22:40;101731.22;;;7.92;50.90
36692;BME280;22678;52.052;4.242;2023-04-06T01:25:06;101704.94;;;7.85;50.77
36692;BME280;22678;52.052;4.242;2023-04-06T01:27:32;101704.94;;;7.85;50.73
36692;BME280;22678;52.052;4.242;2023-04-06T01:29:57;101704.84;;;7.79;50.87
36692;BME280;22678;52.052;4.242;2023-04-06T01:32:22;101722.53;;;7.93;50.65
36692;BME280;22678;52.052;4.242;2023-04-06T01:34:47;101706.72;;;7.86;50.73
36692;BME280;22678;52.052;4.242;2023-04-06T01:37:13;101707.59;;;7.87;50.75
36692;BME280;22678;52.052;4.242;2023-04-06T01:39:38;101698.81;;;7.83;50.61
36692;BME280;22678;52.052;4.242;2023-04-06T01:42:04;101697.06;;;7.84;50.84
36692;BME280;22678;52.052;4.242;2023-04-06T01:44:29;101699.69;;;7.85;50.65
36692;BME280;22678;52.052;4.242;2023-04-06T01:46:57;101711.94;;;7.86;50.65
36692;BME280;22678;52.052;4.242;2023-04-06T01:49:22;101678.56;;;7.73;50.86
36692;BME280;22678;52.052;4.242;2023-04-06T01:51:48;101681.19;;;7.73;50.95
36692;BME280;22678;52.052;4.242;2023-04-06T01:54:13;101691.72;;;7.78;50.89
36692;BME280;22678;52.052;4.242;2023-04-06T01:56:38;101690.00;;;7.80;50.40
36692;BME280;22678;52.052;4.242;2023-04-06T01:59:04;101677.63;;;7.71;51.10
36692;BME280;22678;52.052;4.242;2023-04-06T02:01:29;101687.34;;;7.78;51.16
36692;BME280;22678;52.052;4.242;2023-04-06T02:03:54;101660.03;;;7.62;51.08
36692;BME280;22678;52.052;4.242;2023-04-06T02:06:20;101680.31;;;7.74;51.40
36692;BME280;22678;52.052;4.242;2023-04-06T02:08:45;101655.69;;;7.63;51.21
36692;BME280;22678;52.052;4.242;2023-04-06T02:11:11;101666.34;;;7.74;51.16
36692;BME280;22678;52.052;4.242;2023-04-06T02:13:36;101668.03;;;7.70;51.48
36692;BME280;22678;52.052;4.242;2023-04-06T02:16:01;101656.56;;;7.63;51.66
36692;BME280;22678;52.052;4.242;2023-04-06T02:18:29;101654.75;;;7.59;51.59
36692;BME280;22678;52.052;4.242;2023-04-06T02:20:54;101666.28;;;7.69;51.88
36692;BME280;22678;52.052;4.242;2023-04-06T02:23:19;101657.38;;;7.61;51.68
36692;BME280;22678;52.052;4.242;2023-04-06T02:25:45;101650.41;;;7.60;52.16
36692;BME280;22678;52.052;4.242;2023-04-06T02:28:10;101662.63;;;7.61;51.79
36692;BME280;22678;52.052;4.242;2023-04-06T02:30:36;101660.88;;;7.60;52.32
36692;BME280;22678;52.052;4.242;2023-04-06T02:33:02;101652.94;;;7.55;52.15
36692;BME280;22678;52.052;4.242;2023-04-06T02:35:28;101651.19;;;7.54;52.42
36692;BME280;22678;52.052;4.242;2023-04-06T02:37:54;101645.03;;;7.53;52.66
36692;BME280;22678;52.052;4.242;2023-04-06T02:40:19;101648.53;;;7.52;52.56
36692;BME280;22678;52.052;4.242;2023-04-06T02:42:44;101648.53;;;7.52;52.53
36692;BME280;22678;52.052;4.242;2023-04-06T02:45:10;101633.53;;;7.42;52.79
36692;BME280;22678;52.052;4.242;2023-04-06T02:47:35;101627.28;;;7.35;53.01
36692;BME280;22678;52.052;4.242;2023-04-06T02:50:01;101638.88;;;7.48;52.98
36692;BME280;22678;52.052;4.242;2023-04-06T02:52:26;101621.16;;;7.33;53.04
36692;BME280;22678;52.052;4.242;2023-04-06T02:54:52;101637.81;;;7.39;53.21
36692;BME280;22678;52.052;4.242;2023-04-06T02:57:17;101629.03;;;7.33;53.38
36692;BME280;22678;52.052;4.242;2023-04-06T02:59:42;101628.25;;;7.39;53.23
36692;BME280;22678;52.052;4.242;2023-04-06T03:02:08;101626.47;;;7.38;53.45
36692;BME280;22678;52.052;4.242;2023-04-06T03:04:33;101638.75;;;7.41;53.34
36692;BME280;22678;52.052;4.242;2023-04-06T03:06:58;101627.38;;;7.40;54.02
36692;BME280;22678;52.052;4.242;2023-04-06T03:09:23;101627.38;;;7.40;53.52
36692;BME280;22678;52.052;4.242;2023-04-06T03:11:49;101620.31;;;7.36;53.91
36692;BME280;22678;52.052;4.242;2023-04-06T03:14:14;101604.47;;;7.27;54.22
36692;BME280;22678;52.052;4.242;2023-04-06T03:16:39;101612.34;;;7.28;54.48
36692;BME280;22678;52.052;4.242;2023-04-06T03:19:05;101605.31;;;7.26;54.44
36692;BME280;22678;52.052;4.242;2023-04-06T03:21:30;101607.09;;;7.27;54.50
36692;BME280;22678;52.052;4.242;2023-04-06T03:23:55;101620.25;;;7.33;54.38
36692;BME280;22678;52.052;4.242;2023-04-06T03:26:21;101610.69;;;7.33;54.47
36692;BME280;22678;52.052;4.242;2023-04-06T03:28:47;101622.94;;;7.36;54.97
36692;BME280;22678;52.052;4.242;2023-04-06T03:31:12;101612.44;;;7.34;55.03
36692;BME280;22678;52.052;4.242;2023-04-06T03:33:37;101607.19;;;7.33;55.13
36692;BME280;22678;52.052;4.242;2023-04-06T03:36:03;101596.72;;;7.33;55.15
36692;BME280;22678;52.052;4.242;2023-04-06T03:38:29;101596.72;;;7.33;55.32
36692;BME280;22678;52.052;4.242;2023-04-06T03:40:54;101593.13;;;7.26;55.43
36692;BME280;22678;52.052;4.242;2023-04-06T03:43:19;101597.66;;;7.35;55.42
36692;BME280;22678;52.052;4.242;2023-04-06T03:45:45;101602.88;;;7.35;55.61
36692;BME280;22678;52.052;4.242;2023-04-06T03:48:10;101581.75;;;7.26;55.71
36692;BME280;22678;52.052;4.242;2023-04-06T03:50:36;101591.44;;;7.30;55.62
36692;BME280;22678;52.052;4.242;2023-04-06T03:53:01;101594.06;;;7.31;56.01
36692;BME280;22678;52.052;4.242;2023-04-06T03:55:29;101579.91;;;7.17;56.31
36692;BME280;22678;52.052;4.242;2023-04-06T03:57:55;101589.59;;;7.24;56.46
36692;BME280;22678;52.052;4.242;2023-04-06T04:00:20;101595.81;;;7.31;56.33
36692;BME280;22678;52.052;4.242;2023-04-06T04:02:45;101576.38;;;7.16;56.75
36692;BME280;22678;52.052;4.242;2023-04-06T04:05:11;101576.47;;;7.23;56.53
36692;BME280;22678;52.052;4.242;2023-04-06T04:07:36;101582.66;;;7.25;57.02
36692;BME280;22678;52.052;4.242;2023-04-06T04:10:01;101587.09;;;7.29;56.85
36692;BME280;22678;52.052;4.242;2023-04-06T04:12:27;101580.03;;;7.25;57.34
36692;BME280;22678;52.052;4.242;2023-04-06T04:14:52;101578.25;;;7.24;57.00
36692;BME280;22678;52.052;4.242;2023-04-06T04:17:17;101560.63;;;7.13;57.15
36692;BME280;22678;52.052;4.242;2023-04-06T04:19:43;101583.50;;;7.24;57.40
36692;BME280;22678;52.052;4.242;2023-04-06T04:22:08;101586.94;;;7.23;57.42
36692;BME280;22678;52.052;4.242;2023-04-06T04:24:33;101587.91;;;7.26;57.66
36692;BME280;22678;52.052;4.242;2023-04-06T04:26:59;101586.06;;;7.21;58.11
36692;BME280;22678;52.052;4.242;2023-04-06T04:29:26;101591.31;;;7.22;57.82
36692;BME280;22678;52.052;4.242;2023-04-06T04:31:51;101576.47;;;7.23;58.11
36692;BME280;22678;52.052;4.242;2023-04-06T04:34:17;101584.31;;;7.21;58.04
36692;BME280;22678;52.052;4.242;2023-04-06T04:36:45;101596.63;;;7.27;58.57
36692;BME280;22678;52.052;4.242;2023-04-06T04:39:11;101600.09;;;7.26;58.40
36692;BME280;22678;52.052;4.242;2023-04-06T04:41:36;101571.19;;;7.19;58.57
36692;BME280;22678;52.052;4.242;2023-04-06T04:44:01;101599.28;;;7.30;58.46
36692;BME280;22678;52.052;4.242;2023-04-06T04:46:27;101580.03;;;7.25;58.89
36692;BME280;22678;52.052;4.242;2023-04-06T04:48:52;101589.69;;;7.29;58.77
36692;BME280;22678;52.052;4.242;2023-04-06T04:51:17;101595.81;;;7.31;59.19
36692;BME280;22678;52.052;4.242;2023-04-06T04:53:44;101572.06;;;7.18;59.02
36692;BME280;22678;52.052;4.242;2023-04-06T04:56:10;101576.63;;;7.29;59.36
36692;BME280;22678;52.052;4.242;2023-04-06T04:58:35;101579.16;;;7.27;59.49
36692;BME280;22678;52.052;4.242;2023-04-06T05:01:00;101579.16;;;7.27;59.59
36692;BME280;22678;52.052;4.242;2023-04-06T05:03:26;101595.88;;;7.34;59.91
36692;BME280;22678;52.052;4.242;2023-04-06T05:05:52;101587.19;;;7.35;60.18
36692;BME280;22678;52.052;4.242;2023-04-06T05:08:17;101566.94;;;7.25;60.38
36692;BME280;22678;52.052;4.242;2023-04-06T05:10:43;101594.22;;;7.39;60.39
36692;BME280;22678;52.052;4.242;2023-04-06T05:13:09;101559.09;;;7.25;60.46
36692;BME280;22678;52.052;4.242;2023-04-06T05:15:35;101578.47;;;7.37;60.77
36692;BME280;22678;52.052;4.242;2023-04-06T05:18:03;101582.88;;;7.39;61.04
36692;BME280;22678;52.052;4.242;2023-04-06T05:20:28;101589.09;;;7.45;61.42
36692;BME280;22678;52.052;4.242;2023-04-06T05:22:54;101554.84;;;7.31;61.31
36692;BME280;22678;52.052;4.242;2023-04-06T05:25:19;101586.56;;;7.50;61.75
36692;BME280;22678;52.052;4.242;2023-04-06T05:27:45;101574.25;;;7.46;62.13
36692;BME280;22678;52.052;4.242;2023-04-06T05:30:10;101551.44;;;7.37;62.25
36692;BME280;22678;52.052;4.242;2023-04-06T05:32:36;101551.47;;;7.39;62.15
36692;BME280;22678;52.052;4.242;2023-04-06T05:35:01;101554.09;;;7.40;62.51
36692;BME280;22678;52.052;4.242;2023-04-06T05:37:27;101576.13;;;7.53;62.59
36692;BME280;22678;52.052;4.242;2023-04-06T05:39:52;101577.97;;;7.59;62.80
36692;BME280;22678;52.052;4.242;2023-04-06T05:42:17;101570.91;;;7.54;63.03
36692;BME280;22678;52.052;4.242;2023-04-06T05:44:42;101573.63;;;7.61;62.93
36692;BME280;22678;52.052;4.242;2023-04-06T05:47:08;101571.00;;;7.61;63.43
36692;BME280;22678;52.052;4.242;2023-04-06T05:49:33;101566.69;;;7.63;63.25
36692;BME280;22678;52.052;4.242;2023-04-06T05:51:59;101562.25;;;7.59;63.66
36692;BME280;22678;52.052;4.242;2023-04-06T05:54:25;101563.19;;;7.64;63.87
36692;BME280;22678;52.052;4.242;2023-04-06T05:56:50;101551.78;;;7.57;63.85
36692;BME280;22678;52.052;4.242;2023-04-06T05:59:15;101557.03;;;7.60;64.07
36692;BME280;22678;52.052;4.242;2023-04-06T06:01:41;101557.13;;;7.65;64.14
36692;BME280;22678;52.052;4.242;2023-04-06T06:04:06;101542.94;;;7.52;64.25
36692;BME280;22678;52.052;4.242;2023-04-06T06:06:31;101566.81;;;7.72;64.45
36692;BME280;22678;52.052;4.242;2023-04-06T06:08:57;101570.34;;;7.74;64.71
36692;BME280;22678;52.052;4.242;2023-04-06T06:11:26;101571.25;;;7.76;65.25
36692;BME280;22678;52.052;4.242;2023-04-06T06:13:51;101553.69;;;7.67;65.12
36692;BME280;22678;52.052;4.242;2023-04-06T06:16:18;101556.41;;;7.75;65.63
36692;BME280;22678;52.052;4.242;2023-04-06T06:18:44;101574.00;;;7.85;65.64
36692;BME280;22678;52.052;4.242;2023-04-06T06:21:09;101560.81;;;7.79;65.70
36692;BME280;22678;52.052;4.242;2023-04-06T06:23:37;101574.09;;;7.92;66.00
36692;BME280;22678;52.052;4.242;2023-04-06T06:26:02;101568.03;;;7.96;66.23
36692;BME280;22678;52.052;4.242;2023-04-06T06:28:27;101568.94;;;7.98;66.44
36692;BME280;22678;52.052;4.242;2023-04-06T06:30:53;101544.31;;;7.83;66.80
36692;BME280;22678;52.052;4.242;2023-04-06T06:33:18;101565.47;;;7.99;67.10
36692;BME280;22678;52.052;4.242;2023-04-06T06:35:43;101572.56;;;8.06;67.27
36692;BME280;22678;52.052;4.242;2023-04-06T06:38:09;101569.94;;;8.07;67.68
36692;BME280;22678;52.052;4.242;2023-04-06T06:40:34;101553.31;;;8.02;68.34
36692;BME280;22678;52.052;4.242;2023-04-06T06:43:00;101546.28;;;8.00;68.57
36692;BME280;22678;52.052;4.242;2023-04-06T06:45:25;101539.28;;;7.99;68.78
36692;BME280;22678;52.052;4.242;2023-04-06T06:47:50;101542.75;;;7.99;69.03
36692;BME280;22678;52.052;4.242;2023-04-06T06:50:16;101533.19;;;8.00;69.27
36692;BME280;22678;52.052;4.242;2023-04-06T06:52:41;101548.16;;;8.10;69.79
36692;BME280;22678;52.052;4.242;2023-04-06T06:55:08;101548.25;;;8.16;70.14
36692;BME280;22678;52.052;4.242;2023-04-06T06:57:33;101535.88;;;8.06;70.33
36692;BME280;22678;52.052;4.242;2023-04-06T06:59:59;101543.88;;;8.18;70.76
36692;BME280;22678;52.052;4.242;2023-04-06T07:02:25;101535.09;;;8.13;71.14
36692;BME280;22678;52.052;4.242;2023-04-06T07:04:50;101527.28;;;8.16;71.47
36692;BME280;22678;52.052;4.242;2023-04-06T07:07:16;101548.41;;;8.32;71.78
36692;BME280;22678;52.052;4.242;2023-04-06T07:09:41;101541.44;;;8.31;72.37
36692;BME280;22678;52.052;4.242;2023-04-06T07:12:06;101536.19;;;8.31;72.45
36692;BME280;22678;52.052;4.242;2023-04-06T07:14:32;101528.34;;;8.32;72.77
36692;BME280;22678;52.052;4.242;2023-04-06T07:16:57;101538.13;;;8.44;72.71
36692;BME280;22678;52.052;4.242;2023-04-06T07:19:22;101534.56;;;8.42;73.11
36692;BME280;22678;52.052;4.242;2023-04-06T07:21:48;101533.00;;;8.53;73.36
36692;BME280;22678;52.052;4.242;2023-04-06T07:24:15;101529.50;;;8.54;73.69
36692;BME280;22678;52.052;4.242;2023-04-06T07:26:41;101523.34;;;8.52;73.80
36692;BME280;22678;52.052;4.242;2023-04-06T07:29:07;101519.03;;;8.54;73.89
36692;BME280;22678;52.052;4.242;2023-04-06T07:31:32;101522.56;;;8.61;74.02
36692;BME280;22678;52.052;4.242;2023-04-06T07:33:58;101519.03;;;8.54;73.95
36692;BME280;22678;52.052;4.242;2023-04-06T07:36:23;101515.63;;;8.62;74.09
36692;BME280;22678;52.052;4.242;2023-04-06T07:38:49;101521.75;;;8.65;74.82
36692;BME280;22678;52.052;4.242;2023-04-06T07:41:14;101520.06;;;8.67;74.58
36692;BME280;22678;52.052;4.242;2023-04-06T07:43:39;101517.44;;;8.69;74.76
36692;BME280;22678;52.052;4.242;2023-04-06T07:46:05;101522.66;;;8.66;75.16
36692;BME280;22678;52.052;4.242;2023-04-06T07:48:31;101518.28;;;8.66;75.28
36692;BME280;22678;52.052;4.242;2023-04-06T07:51:04;101513.00;;;8.63;75.33
36692;BME280;22678;52.052;4.242;2023-04-06T07:53:30;101519.19;;;8.70;76.16
36692;BME280;22678;52.052;4.242;2023-04-06T07:55:56;101535.84;;;8.75;76.16
36692;BME280;22678;52.052;4.242;2023-04-06T07:58:21;101498.97;;;8.61;76.34
36692;BME280;22678;52.052;4.242;2023-04-06T08:00:47;101509.56;;;8.66;76.53
36692;BME280;22678;52.052;4.242;2023-04-06T08:03:12;101520.97;;;8.74;76.68
36692;BME280;22678;52.052;4.242;2023-04-06T08:05:37;101513.06;;;8.68;76.87
36692;BME280;22678;52.052;4.242;2023-04-06T08:08:03;101520.13;;;8.76;77.30
36692;BME280;22678;52.052;4.242;2023-04-06T08:10:28;101514.03;;;8.76;77.46
36692;BME280;22678;52.052;4.242;2023-04-06T08:12:54;101514.88;;;8.76;77.70
36692;BME280;22678;52.052;4.242;2023-04-06T08:15:19;101524.56;;;8.82;78.19
36692;BME280;22678;52.052;4.242;2023-04-06T08:17:45;101499.91;;;8.65;78.32
36692;BME280;22678;52.052;4.242;2023-04-06T08:20:10;101518.38;;;8.77;78.33
36692;BME280;22678;52.052;4.242;2023-04-06T08:22:35;101524.56;;;8.81;78.69
36692;BME280;22678;52.052;4.242;2023-04-06T08:25:01;101525.41;;;8.78;78.43
36692;BME280;22678;52.052;4.242;2023-04-06T08:27:26;101516.56;;;8.71;78.83
36692;BME280;22678;52.052;4.242;2023-04-06T08:29:51;101506.88;;;8.64;78.71
36692;BME280;22678;52.052;4.242;2023-04-06T08:32:17;101524.44;;;8.73;78.78
36692;BME280;22678;52.052;4.242;2023-04-06T08:34:42;101519.13;;;8.64;78.70
36692;BME280;22678;52.052;4.242;2023-04-06T08:37:07;101513.84;;;8.61;78.65
36692;BME280;22678;52.052;4.242;2023-04-06T08:39:33;101512.03;;;8.56;78.78
36692;BME280;22678;52.052;4.242;2023-04-06T08:41:59;101519.09;;;8.61;79.10
36692;BME280;22678;52.052;4.242;2023-04-06T08:44:26;101453.94;;;8.19;79.25
36692;BME280;22678;52.052;4.242;2023-04-06T08:46:51;101503.25;;;8.48;79.27
36692;BME280;22678;52.052;4.242;2023-04-06T08:49:18;101499.69;;;8.46;78.98
36692;BME280;22678;52.052;4.242;2023-04-06T08:51:44;101504.13;;;8.50;79.06
36692;BME280;22678;52.052;4.242;2023-04-06T08:54:09;101505.00;;;8.52;79.54
36692;BME280;22678;52.052;4.242;2023-04-06T08:56:38;101513.78;;;8.54;79.34
36692;BME280;22678;52.052;4.242;2023-04-06T08:59:03;101512.00;;;8.50;79.55
36692;BME280;22678;52.052;4.242;2023-04-06T09:01:30;101508.47;;;8.48;80.01
36692;BME280;22678;52.052;4.242;2023-04-06T09:03:59;101503.25;;;8.48;79.96
36692;BME280;22678;52.052;4.242;2023-04-06T09:06:26;101500.59;;;8.47;80.06
36692;BME280;22678;52.052;4.242;2023-04-06T09:08:52;101512.00;;;8.50;80.30
36692;BME280;22678;52.052;4.242;2023-04-06T09:11:18;101498.75;;;8.41;80.70
36692;BME280;22678;52.052;4.242;2023-04-06T09:13:53;101510.19;;;8.46;80.58
36692;BME280;22678;52.052;4.242;2023-04-06T09:16:19;101503.09;;;8.42;80.81
36692;BME280;22678;52.052;4.242;2023-04-06T09:18:45;101493.47;;;8.36;81.08
36692;BME280;22678;52.052;4.242;2023-04-06T09:21:10;101506.69;;;8.46;81.51
36692;BME280;22678;52.052;4.242;2023-04-06T09:23:36;101497.88;;;8.42;81.92
36692;BME280;22678;52.052;4.242;2023-04-06T09:26:13;101490.00;;;8.40;82.79
36692;BME280;22678;52.052;4.242;2023-04-06T09:28:49;101500.50;;;8.42;83.17
36692;BME280;22678;52.052;4.242;2023-04-06T09:31:16;101501.38;;;8.41;83.73
36692;BME280;22678;52.052;4.242;2023-04-06T09:33:44;101501.34;;;8.38;83.73
36692;BME280;22678;52.052;4.242;2023-04-06T09:36:10;101497.81;;;8.36;83.69
36692;BME280;22678;52.052;4.242;2023-04-06T09:38:37;101485.53;;;8.32;83.99
36692;BME280;22678;52.052;4.242;2023-04-06T09:41:03;101490.72;;;8.29;84.33
36692;BME280;22678;52.052;4.242;2023-04-06T09:43:29;101477.53;;;8.18;84.47
36692;BME280;22678;52.052;4.242;2023-04-06T09:46:00;101487.25;;;8.28;84.95
36692;BME280;22678;52.052;4.242;2023-04-06T09:48:26;101482.97;;;8.35;85.09
36692;BME280;22678;52.052;4.242;2023-04-06T09:50:58;101459.19;;;8.19;85.40
36692;BME280;22678;52.052;4.242;2023-04-06T09:53:26;101481.19;;;8.34;85.93
36692;BME280;22678;52.052;4.242;2023-04-06T09:55:57;101468.03;;;8.28;86.12
36692;BME280;22678;52.052;4.242;2023-04-06T09:58:28;101471.53;;;8.30;86.40
36692;BME280;22678;52.052;4.242;2023-04-06T10:01:06;101465.47;;;8.32;86.57
36692;BME280;22678;52.052;4.242;2023-04-06T10:04:06;101476.00;;;8.38;87.14
36692;BME280;22678;52.052;4.242;2023-04-06T10:06:35;101472.53;;;8.39;87.28
36692;BME280;22678;52.052;4.242;2023-04-06T10:09:04;101470.78;;;8.40;87.52
36692;BME280;22678;52.052;4.242;2023-04-06T10:11:30;101457.66;;;8.37;88.06
36692;BME280;22678;52.052;4.242;2023-04-06T10:13:56;101461.16;;;8.40;88.55
36692;BME280;22678;52.052;4.242;2023-04-06T10:16:22;101475.22;;;8.44;88.06
36692;BME280;22678;52.052;4.242;2023-04-06T10:18:53;101466.41;;;8.42;88.91
36692;BME280;22678;52.052;4.242;2023-04-06T10:21:22;101462.13;;;8.44;88.98
36692;BME280;22678;52.052;4.242;2023-04-06T10:23:50;101447.13;;;8.34;89.11
36692;BME280;22678;52.052;4.242;2023-04-06T10:26:20;101455.06;;;8.40;89.05
36692;BME280;22678;52.052;4.242;2023-04-06T10:28:47;101463.78;;;8.42;89.43
36692;BME280;22678;52.052;4.242;2023-04-06T10:31:13;101461.16;;;8.40;89.33
36692;BME280;22678;52.052;4.242;2023-04-06T10:33:38;101452.38;;;8.34;90.21
36692;BME280;22678;52.052;4.242;2023-04-06T10:36:21;101441.88;;;8.34;90.09
36692;BME280;22678;52.052;4.242;2023-04-06T10:38:47;101448.03;;;8.39;90.36
36692;BME280;22678;52.052;4.242;2023-04-06T10:41:12;101455.91;;;8.39;90.83
36692;BME280;22678;52.052;4.242;2023-04-06T10:43:40;101443.66;;;8.35;90.75
36692;BME280;22678;52.052;4.242;2023-04-06T10:46:07;101448.00;;;8.36;90.99
36692;BME280;22678;52.052;4.242;2023-04-06T10:48:42;101449.78;;;8.37;91.24
36692;BME280;22678;52.052;4.242;2023-04-06T10:51:15;101362.00;;;7.95;91.06
36692;BME280;22678;52.052;4.242;2023-04-06T10:53:42;101434.06;;;8.38;91.26
36692;BME280;22678;52.052;4.242;2023-04-06T10:56:13;101412.16;;;8.32;91.58
36692;BME280;22678;52.052;4.242;2023-04-06T10:58:44;101419.16;;;8.33;91.78
36692;BME280;22678;52.052;4.242;2023-04-06T11:01:11;101420.09;;;8.38;91.97
36692;BME280;22678;52.052;4.242;2023-04-06T11:03:46;101427.09;;;8.42;92.26
36692;BME280;22678;52.052;4.242;2023-04-06T11:06:24;101433.31;;;8.46;92.20
36692;BME280;22678;52.052;4.242;2023-04-06T11:08:50;101427.22;;;8.47;92.28
36692;BME280;22678;52.052;4.242;2023-04-06T11:11:17;101423.69;;;8.46;92.30
36692;BME280;22678;52.052;4.242;2023-04-06T11:13:48;101410.47;;;8.37;92.45
36692;BME280;22678;52.052;4.242;2023-04-06T11:18:57;101408.88;;;8.48;92.77
36692;BME280;22678;52.052;4.242;2023-04-06T11:24:15;101415.88;;;8.52;92.89
36692;BME280;22678;52.052;4.242;2023-04-06T11:26:42;101414.19;;;8.57;93.26
36692;BME280;22678;52.052;4.242;2023-04-06T11:29:09;101414.22;;;8.61;93.01
36692;BME280;22678;52.052;4.242;2023-04-06T11:31:39;101410.75;;;8.62;93.33
36692;BME280;22678;52.052;4.242;2023-04-06T11:34:23;101410.75;;;8.62;93.67
36692;BME280;22678;52.052;4.242;2023-04-06T11:37:00;101404.59;;;8.59;93.86
36692;BME280;22678;52.052;4.242;2023-04-06T11:39:28;101413.38;;;8.63;93.81
36692;BME280;22678;52.052;4.242;2023-04-06T11:41:57;101392.28;;;8.51;93.69
36692;BME280;22678;52.052;4.242;2023-04-06T11:44:32;101389.72;;;8.57;93.98
36692;BME280;22678;52.052;4.242;2023-04-06T11:46:58;101399.38;;;8.64;93.94
36692;BME280;22678;52.052;4.242;2023-04-06T11:49:30;101403.72;;;8.61;94.17
36692;BME280;22678;52.052;4.242;2023-04-06T11:52:01;101401.91;;;8.53;94.52
36692;BME280;22678;52.052;4.242;2023-04-06T11:54:37;101404.59;;;8.61;94.61
36692;BME280;22678;52.052;4.242;2023-04-06T11:57:03;101396.72;;;8.59;94.48
36692;BME280;22678;52.052;4.242;2023-04-06T11:59:29;101327.31;;;8.16;94.67
36692;BME280;22678;52.052;4.242;2023-04-06T12:01:56;101408.09;;;8.58;95.01
36692;BME280;22678;52.052;4.242;2023-04-06T12:04:22;101397.63;;;8.60;94.87
36692;BME280;22678;52.052;4.242;2023-04-06T12:06:48;101406.34;;;8.61;95.07
36692;BME280;22678;52.052;4.242;2023-04-06T12:09:13;101369.53;;;8.47;95.23
36692;BME280;22678;52.052;4.242;2023-04-06T12:11:38;101391.47;;;8.59;95.32
36692;BME280;22678;52.052;4.242;2023-04-06T12:14:04;101379.25;;;8.58;95.81
36692;BME280;22678;52.052;4.242;2023-04-06T12:16:30;101372.22;;;8.54;95.93
36692;BME280;22678;52.052;4.242;2023-04-06T12:18:56;101363.44;;;8.52;95.98
36692;BME280;22678;52.052;4.242;2023-04-06T12:21:21;101392.44;;;8.69;95.98
36692;BME280;22678;52.052;4.242;2023-04-06T12:23:47;101345.06;;;8.48;96.10
36692;BME280;22678;52.052;4.242;2023-04-06T12:26:12;101359.09;;;8.51;96.39
36692;BME280;22678;52.052;4.242;2023-04-06T12:28:37;101376.69;;;8.65;96.39
36692;BME280;22678;52.052;4.242;2023-04-06T12:31:03;101358.16;;;8.46;96.20
36692;BME280;22678;52.052;4.242;2023-04-06T12:33:28;101365.22;;;8.53;96.53
36692;BME280;22678;52.052;4.242;2023-04-06T12:35:53;101367.00;;;8.57;96.73
36692;BME280;22678;52.052;4.242;2023-04-06T12:38:19;101366.13;;;8.54;97.03
36692;BME280;22678;52.052;4.242;2023-04-06T12:40:45;101361.75;;;8.54;96.85
36692;BME280;22678;52.052;4.242;2023-04-06T12:43:10;101362.63;;;8.56;97.31
36692;BME280;22678;52.052;4.242;2023-04-06T12:45:38;101354.72;;;8.50;97.48
36692;BME280;22678;52.052;4.242;2023-04-06T12:48:03;101361.75;;;8.54;97.52
36692;BME280;22678;52.052;4.242;2023-04-06T12:50:28;101358.19;;;8.51;97.73
36692;BME280;22678;52.052;4.242;2023-04-06T12:52:54;101346.00;;;8.51;97.79
36692;BME280;22678;52.052;4.242;2023-04-06T12:55:19;101349.50;;;8.53;97.99
36692;BME280;22678;52.052;4.242;2023-04-06T12:57:45;101351.22;;;8.48;98.20
36692;BME280;22678;52.052;4.242;2023-04-06T13:00:11;101351.22;;;8.48;98.70